sensor_id;sensor_type;location;lat;lon;timestamp;P1;durP1;ratioP1;P2;durP2;ratioP2
22871;SDS011;11603;44.910;8.630;2023-05-10T00:00:57;14.40;;;12.02;;
22871;SDS011;11603;44.910;8.630;2023-05-10T00:03:23;16.10;;;13.13;;
22871;SDS011;11603;44.910;8.630;2023-05-10T00:05:48;16.67;;;13.85;;
22871;SDS011;11603;44.910;8.630;2023-05-10T00:08:14;18.85;;;15.10;;
22871;SDS011;11603;44.910;8.630;2023-05-10T00:10:39;17.75;;;14.02;;
22871;SDS011;11603;44.910;8.630;2023-05-10T00:13:06;16.63;;;14.93;;
22871;SDS011;11603;44.910;8.630;2023-05-10T00:15:31;18.90;;;14.77;;
22871;SDS011;11603;44.910;8.630;2023-05-10T00:17:57;17.10;;;14.20;;
22871;SDS011;11603;44.910;8.630;2023-05-10T00:20:22;17.73;;;13.85;;
22871;SDS011;11603;44.910;8.630;2023-05-10T00:22:48;16.77;;;13.43;;
22871;SDS011;11603;44.910;8.630;2023-05-10T00:25:13;16.70;;;13.27;;
22871;SDS011;11603;44.910;8.630;2023-05-10T00:27:39;15.82;;;13.70;;
22871;SDS011;11603;44.910;8.630;2023-05-10T00:30:04;14.35;;;12.77;;
22871;SDS011;11603;44.910;8.630;2023-05-10T00:32:31;15.15;;;13.18;;
22871;SDS011;11603;44.910;8.630;2023-05-10T00:34:56;14.68;;;13.13;;
22871;SDS011;11603;44.910;8.630;2023-05-10T00:37:22;16.50;;;12.38;;
22871;SDS011;11603;44.910;8.630;2023-05-10T00:39:48;13.70;;;12.25;;
22871;SDS011;11603;44.910;8.630;2023-05-10T00:42:13;14.18;;;11.88;;
22871;SDS011;11603;44.910;8.630;2023-05-10T00:44:40;14.02;;;11.60;;
22871;SDS011;11603;44.910;8.630;2023-05-10T00:47:05;11.95;;;10.57;;
22871;SDS011;11603;44.910;8.630;2023-05-10T00:49:31;12.40;;;11.10;;
22871;SDS011;11603;44.910;8.630;2023-05-10T00:51:57;12.57;;;10.68;;
22871;SDS011;11603;44.910;8.630;2023-05-10T00:54:23;11.40;;;10.13;;
22871;SDS011;11603;44.910;8.630;2023-05-10T00:56:49;11.45;;;10.15;;
22871;SDS011;11603;44.910;8.630;2023-05-10T00:59:17;12.57;;;9.93;;
22871;SDS011;11603;44.910;8.630;2023-05-10T01:01:46;14.15;;;10.38;;
22871;SDS011;11603;44.910;8.630;2023-05-10T01:04:12;10.95;;;9.80;;
22871;SDS011;11603;44.910;8.630;2023-05-10T01:06:39;12.02;;;10.27;;
22871;SDS011;11603;44.910;8.630;2023-05-10T01:09:05;12.10;;;10.65;;
22871;SDS011;11603;44.910;8.630;2023-05-10T01:11:32;12.68;;;11.38;;
22871;SDS011;11603;44.910;8.630;2023-05-10T01:14:01;11.88;;;10.55;;
22871;SDS011;11603;44.910;8.630;2023-05-10T01:16:28;12.60;;;11.07;;
22871;SDS011;11603;44.910;8.630;2023-05-10T01:18:57;15.48;;;12.73;;
22871;SDS011;11603;44.910;8.630;2023-05-10T01:24:31;15.13;;;11.88;;
22871;SDS011;11603;44.910;8.630;2023-05-10T01:35:47;13.43;;;12.02;;
22871;SDS011;11603;44.910;8.630;2023-05-10T01:46:35;13.95;;;12.50;;
22871;SDS011;11603;44.910;8.630;2023-05-10T01:49:03;14.60;;;12.73;;
22871;SDS011;11603;44.910;8.630;2023-05-10T01:51:41;14.57;;;11.80;;
22871;SDS011;11603;44.910;8.630;2023-05-10T01:54:13;10.88;;;9.85;;
22871;SDS011;11603;44.910;8.630;2023-05-10T01:56:42;13.68;;;10.55;;
22871;SDS011;11603;44.910;8.630;2023-05-10T01:59:15;11.43;;;10.32;;
22871;SDS011;11603;44.910;8.630;2023-05-10T02:01:43;12.70;;;11.00;;
22871;SDS011;11603;44.910;8.630;2023-05-10T02:04:10;11.52;;;10.32;;
22871;SDS011;11603;44.910;8.630;2023-05-10T02:06:40;11.38;;;10.07;;
22871;SDS011;11603;44.910;8.630;2023-05-10T02:09:07;11.30;;;10.15;;
22871;SDS011;11603;44.910;8.630;2023-05-10T02:11:37;11.00;;;9.88;;
22871;SDS011;11603;44.910;8.630;2023-05-10T02:14:03;13.65;;;10.27;;
22871;SDS011;11603;44.910;8.630;2023-05-10T02:16:34;12.45;;;11.23;;
22871;SDS011;11603;44.910;8.630;2023-05-10T02:19:01;15.43;;;13.38;;
22871;SDS011;11603;44.910;8.630;2023-05-10T02:21:27;19.35;;;16.27;;
22871;SDS011;11603;44.910;8.630;2023-05-10T02:23:54;20.48;;;17.08;;
22871;SDS011;11603;44.910;8.630;2023-05-10T02:26:20;24.02;;;18.58;;
22871;SDS011;11603;44.910;8.630;2023-05-10T02:28:48;24.17;;;18.58;;
22871;SDS011;11603;44.910;8.630;2023-05-10T02:31:15;26.17;;;19.35;;
22871;SDS011;11603;44.910;8.630;2023-05-10T02:33:42;26.88;;;20.30;;
22871;SDS011;11603;44.910;8.630;2023-05-10T02:36:09;32.13;;;21.77;;
22871;SDS011;11603;44.910;8.630;2023-05-10T02:38:36;30.73;;;23.20;;
22871;SDS011;11603;44.910;8.630;2023-05-10T02:41:01;33.20;;;23.67;;
22871;SDS011;11603;44.910;8.630;2023-05-10T02:43:30;33.63;;;23.88;;
22871;SDS011;11603;44.910;8.630;2023-05-10T02:45:57;35.22;;;25.42;;
22871;SDS011;11603;44.910;8.630;2023-05-10T02:48:23;34.88;;;24.63;;
22871;SDS011;11603;44.910;8.630;2023-05-10T02:50:48;35.38;;;25.10;;
22871;SDS011;11603;44.910;8.630;2023-05-10T02:53:26;35.15;;;23.00;;
22871;SDS011;11603;44.910;8.630;2023-05-10T02:55:57;34.30;;;24.38;;
22871;SDS011;11603;44.910;8.630;2023-05-10T02:58:26;35.03;;;24.13;;
22871;SDS011;11603;44.910;8.630;2023-05-10T03:00:51;35.17;;;24.30;;
22871;SDS011;11603;44.910;8.630;2023-05-10T03:03:17;34.60;;;24.45;;
22871;SDS011;11603;44.910;8.630;2023-05-10T03:05:42;34.58;;;25.10;;
22871;SDS011;11603;44.910;8.630;2023-05-10T03:08:08;33.75;;;25.45;;
22871;SDS011;11603;44.910;8.630;2023-05-10T03:10:38;32.53;;;22.80;;
22871;SDS011;11603;44.910;8.630;2023-05-10T03:13:18;27.20;;;19.25;;
22871;SDS011;11603;44.910;8.630;2023-05-10T03:19:01;24.85;;;17.25;;
22871;SDS011;11603;44.910;8.630;2023-05-10T03:21:43;23.63;;;15.70;;
22871;SDS011;11603;44.910;8.630;2023-05-10T03:24:14;19.90;;;15.27;;
22871;SDS011;11603;44.910;8.630;2023-05-10T03:26:43;19.13;;;14.05;;
22871;SDS011;11603;44.910;8.630;2023-05-10T03:29:15;18.95;;;14.00;;
22871;SDS011;11603;44.910;8.630;2023-05-10T03:31:42;18.35;;;13.70;;
22871;SDS011;11603;44.910;8.630;2023-05-10T03:34:07;17.02;;;12.73;;
22871;SDS011;11603;44.910;8.630;2023-05-10T03:36:33;17.98;;;13.02;;
22871;SDS011;11603;44.910;8.630;2023-05-10T03:38:58;15.38;;;11.52;;
22871;SDS011;11603;44.910;8.630;2023-05-10T03:41:25;18.20;;;12.70;;
22871;SDS011;11603;44.910;8.630;2023-05-10T03:43:50;18.00;;;13.00;;
22871;SDS011;11603;44.910;8.630;2023-05-10T03:46:16;17.70;;;13.32;;
22871;SDS011;11603;44.910;8.630;2023-05-10T03:48:42;20.00;;;13.35;;
22871;SDS011;11603;44.910;8.630;2023-05-10T03:51:08;19.67;;;13.77;;
22871;SDS011;11603;44.910;8.630;2023-05-10T03:53:34;18.33;;;13.77;;
22871;SDS011;11603;44.910;8.630;2023-05-10T03:55:59;16.17;;;12.75;;
22871;SDS011;11603;44.910;8.630;2023-05-10T03:58:25;15.95;;;12.20;;
22871;SDS011;11603;44.910;8.630;2023-05-10T04:00:51;16.70;;;13.32;;
22871;SDS011;11603;44.910;8.630;2023-05-10T04:03:17;17.13;;;12.45;;
22871;SDS011;11603;44.910;8.630;2023-05-10T04:05:42;17.52;;;13.40;;
22871;SDS011;11603;44.910;8.630;2023-05-10T04:08:08;17.63;;;11.35;;
22871;SDS011;11603;44.910;8.630;2023-05-10T04:10:34;17.23;;;13.95;;
22871;SDS011;11603;44.910;8.630;2023-05-10T04:13:00;17.00;;;13.48;;
22871;SDS011;11603;44.910;8.630;2023-05-10T04:15:25;16.40;;;12.30;;
22871;SDS011;11603;44.910;8.630;2023-05-10T04:17:51;15.23;;;11.85;;
22871;SDS011;11603;44.910;8.630;2023-05-10T04:20:16;15.27;;;12.02;;
22871;SDS011;11603;44.910;8.630;2023-05-10T04:22:42;16.60;;;11.93;;
22871;SDS011;11603;44.910;8.630;2023-05-10T04:25:08;17.35;;;10.70;;
22871;SDS011;11603;44.910;8.630;2023-05-10T04:27:34;12.60;;;9.55;;
22871;SDS011;11603;44.910;8.630;2023-05-10T04:29:59;12.45;;;8.63;;
22871;SDS011;11603;44.910;8.630;2023-05-10T04:32:25;12.02;;;10.18;;
22871;SDS011;11603;44.910;8.630;2023-05-10T04:34:50;17.60;;;10.18;;
22871;SDS011;11603;44.910;8.630;2023-05-10T04:37:16;13.18;;;10.10;;
22871;SDS011;11603;44.910;8.630;2023-05-10T04:39:42;15.38;;;10.75;;
22871;SDS011;11603;44.910;8.630;2023-05-10T04:42:07;15.48;;;11.48;;
22871;SDS011;11603;44.910;8.630;2023-05-10T04:44:33;19.30;;;12.68;;
22871;SDS011;11603;44.910;8.630;2023-05-10T04:46:58;12.43;;;9.27;;
22871;SDS011;11603;44.910;8.630;2023-05-10T04:49:24;15.48;;;11.75;;
22871;SDS011;11603;44.910;8.630;2023-05-10T04:51:50;15.63;;;11.18;;
22871;SDS011;11603;44.910;8.630;2023-05-10T04:54:15;13.13;;;9.70;;
22871;SDS011;11603;44.910;8.630;2023-05-10T04:56:41;19.13;;;13.55;;
22871;SDS011;11603;44.910;8.630;2023-05-10T04:59:06;15.48;;;9.77;;
22871;SDS011;11603;44.910;8.630;2023-05-10T05:01:32;17.10;;;12.70;;
22871;SDS011;11603;44.910;8.630;2023-05-10T05:03:58;14.20;;;12.07;;
22871;SDS011;11603;44.910;8.630;2023-05-10T05:06:27;14.63;;;12.40;;
22871;SDS011;11603;44.910;8.630;2023-05-10T05:08:53;14.18;;;11.82;;
22871;SDS011;11603;44.910;8.630;2023-05-10T05:11:20;16.17;;;11.82;;
22871;SDS011;11603;44.910;8.630;2023-05-10T05:13:46;17.17;;;12.23;;
22871;SDS011;11603;44.910;8.630;2023-05-10T05:16:11;15.63;;;12.15;;
22871;SDS011;11603;44.910;8.630;2023-05-10T05:18:37;14.00;;;11.40;;
22871;SDS011;11603;44.910;8.630;2023-05-10T05:21:12;13.95;;;10.60;;
22871;SDS011;11603;44.910;8.630;2023-05-10T05:23:39;13.30;;;9.57;;
22871;SDS011;11603;44.910;8.630;2023-05-10T05:26:04;11.18;;;9.32;;
22871;SDS011;11603;44.910;8.630;2023-05-10T05:28:30;9.73;;;8.45;;
22871;SDS011;11603;44.910;8.630;2023-05-10T05:30:59;10.45;;;8.98;;
22871;SDS011;11603;44.910;8.630;2023-05-10T05:33:24;10.02;;;8.77;;
22871;SDS011;11603;44.910;8.630;2023-05-10T05:35:50;11.80;;;9.35;;
22871;SDS011;11603;44.910;8.630;2023-05-10T05:38:16;11.85;;;10.30;;
22871;SDS011;11603;44.910;8.630;2023-05-10T05:40:42;13.75;;;10.48;;
22871;SDS011;11603;44.910;8.630;2023-05-10T05:43:08;13.00;;;10.65;;
22871;SDS011;11603;44.910;8.630;2023-05-10T05:45:33;11.18;;;9.25;;
22871;SDS011;11603;44.910;8.630;2023-05-10T05:47:58;16.80;;;10.90;;
22871;SDS011;11603;44.910;8.630;2023-05-10T05:50:24;11.38;;;9.80;;
22871;SDS011;11603;44.910;8.630;2023-05-10T05:52:49;11.65;;;9.80;;
22871;SDS011;11603;44.910;8.630;2023-05-10T05:55:15;13.50;;;10.32;;
22871;SDS011;11603;44.910;8.630;2023-05-10T05:57:40;13.55;;;10.88;;
22871;SDS011;11603;44.910;8.630;2023-05-10T06:00:07;12.38;;;10.57;;
22871;SDS011;11603;44.910;8.630;2023-05-10T06:02:39;14.07;;;11.43;;
22871;SDS011;11603;44.910;8.630;2023-05-10T06:05:05;13.65;;;11.23;;
22871;SDS011;11603;44.910;8.630;2023-05-10T06:07:31;12.65;;;10.98;;
22871;SDS011;11603;44.910;8.630;2023-05-10T06:09:56;13.45;;;10.40;;
22871;SDS011;11603;44.910;8.630;2023-05-10T06:12:22;11.30;;;10.10;;
22871;SDS011;11603;44.910;8.630;2023-05-10T06:14:47;13.80;;;9.63;;
22871;SDS011;11603;44.910;8.630;2023-05-10T06:17:13;10.57;;;9.05;;
22871;SDS011;11603;44.910;8.630;2023-05-10T06:19:38;10.13;;;9.05;;
22871;SDS011;11603;44.910;8.630;2023-05-10T06:22:03;9.57;;;8.57;;
22871;SDS011;11603;44.910;8.630;2023-05-10T06:24:29;9.13;;;8.23;;
22871;SDS011;11603;44.910;8.630;2023-05-10T06:26:54;8.93;;;8.02;;
22871;SDS011;11603;44.910;8.630;2023-05-10T06:29:20;10.00;;;8.05;;
22871;SDS011;11603;44.910;8.630;2023-05-10T06:31:45;8.82;;;7.90;;
22871;SDS011;11603;44.910;8.630;2023-05-10T06:34:11;9.20;;;8.20;;
22871;SDS011;11603;44.910;8.630;2023-05-10T06:36:37;8.05;;;7.25;;
22871;SDS011;11603;44.910;8.630;2023-05-10T06:39:02;8.45;;;7.55;;
22871;SDS011;11603;44.910;8.630;2023-05-10T06:41:28;7.85;;;7.05;;
22871;SDS011;11603;44.910;8.630;2023-05-10T06:43:53;7.63;;;6.93;;
22871;SDS011;11603;44.910;8.630;2023-05-10T06:46:19;9.40;;;6.97;;
22871;SDS011;11603;44.910;8.630;2023-05-10T06:48:44;6.97;;;6.28;;
22871;SDS011;11603;44.910;8.630;2023-05-10T06:51:10;6.85;;;6.07;;
22871;SDS011;11603;44.910;8.630;2023-05-10T06:53:35;6.63;;;6.03;;
22871;SDS011;11603;44.910;8.630;2023-05-10T06:56:01;10.65;;;6.97;;
22871;SDS011;11603;44.910;8.630;2023-05-10T06:58:28;7.35;;;6.65;;
22871;SDS011;11603;44.910;8.630;2023-05-10T07:00:53;6.43;;;5.82;;
22871;SDS011;11603;44.910;8.630;2023-05-10T07:03:18;7.32;;;6.63;;
22871;SDS011;11603;44.910;8.630;2023-05-10T07:05:44;7.07;;;6.38;;
22871;SDS011;11603;44.910;8.630;2023-05-10T07:08:09;6.60;;;5.90;;
22871;SDS011;11603;44.910;8.630;2023-05-10T07:10:35;6.60;;;6.00;;
22871;SDS011;11603;44.910;8.630;2023-05-10T07:13:01;6.43;;;5.82;;
22871;SDS011;11603;44.910;8.630;2023-05-10T07:15:26;7.07;;;6.40;;
22871;SDS011;11603;44.910;8.630;2023-05-10T07:17:52;10.25;;;6.57;;
22871;SDS011;11603;44.910;8.630;2023-05-10T07:20:17;6.30;;;5.70;;
22871;SDS011;11603;44.910;8.630;2023-05-10T07:22:43;6.47;;;5.32;;
22871;SDS011;11603;44.910;8.630;2023-05-10T07:25:08;5.07;;;4.68;;
22871;SDS011;11603;44.910;8.630;2023-05-10T07:27:34;4.85;;;4.45;;
22871;SDS011;11603;44.910;8.630;2023-05-10T07:30:00;4.55;;;4.03;;
22871;SDS011;11603;44.910;8.630;2023-05-10T07:32:25;4.82;;;4.40;;
22871;SDS011;11603;44.910;8.630;2023-05-10T07:34:51;6.57;;;4.05;;
22871;SDS011;11603;44.910;8.630;2023-05-10T07:37:16;4.68;;;4.18;;
22871;SDS011;11603;44.910;8.630;2023-05-10T07:39:42;5.00;;;4.50;;
22871;SDS011;11603;44.910;8.630;2023-05-10T07:42:07;6.40;;;4.18;;
22871;SDS011;11603;44.910;8.630;2023-05-10T07:44:33;7.57;;;4.40;;
22871;SDS011;11603;44.910;8.630;2023-05-10T07:46:58;5.15;;;4.03;;
22871;SDS011;11603;44.910;8.630;2023-05-10T07:49:25;6.38;;;3.90;;
22871;SDS011;11603;44.910;8.630;2023-05-10T07:51:50;4.25;;;3.80;;
22871;SDS011;11603;44.910;8.630;2023-05-10T07:54:16;7.55;;;4.15;;
22871;SDS011;11603;44.910;8.630;2023-05-10T07:56:42;4.38;;;3.97;;
22871;SDS011;11603;44.910;8.630;2023-05-10T07:59:14;4.57;;;3.95;;
22871;SDS011;11603;44.910;8.630;2023-05-10T08:01:41;3.60;;;3.30;;
22871;SDS011;11603;44.910;8.630;2023-05-10T08:04:07;5.63;;;3.45;;
22871;SDS011;11603;44.910;8.630;2023-05-10T08:06:32;5.00;;;3.67;;
22871;SDS011;11603;44.910;8.630;2023-05-10T08:08:58;4.05;;;3.40;;
22871;SDS011;11603;44.910;8.630;2023-05-10T08:11:24;4.78;;;3.58;;
22871;SDS011;11603;44.910;8.630;2023-05-10T08:13:50;3.55;;;3.03;;
22871;SDS011;11603;44.910;8.630;2023-05-10T08:16:16;3.67;;;3.20;;
22871;SDS011;11603;44.910;8.630;2023-05-10T08:18:43;4.13;;;3.38;;
22871;SDS011;11603;44.910;8.630;2023-05-10T08:21:09;3.22;;;2.92;;
22871;SDS011;11603;44.910;8.630;2023-05-10T08:23:36;3.78;;;3.15;;
22871;SDS011;11603;44.910;8.630;2023-05-10T08:26:02;4.88;;;3.20;;
22871;SDS011;11603;44.910;8.630;2023-05-10T08:28:27;3.58;;;3.28;;
22871;SDS011;11603;44.910;8.630;2023-05-10T08:30:53;8.27;;;2.88;;
22871;SDS011;11603;44.910;8.630;2023-05-10T08:33:19;3.67;;;3.38;;
22871;SDS011;11603;44.910;8.630;2023-05-10T08:35:44;2.95;;;2.67;;
22871;SDS011;11603;44.910;8.630;2023-05-10T08:38:10;4.45;;;3.03;;
22871;SDS011;11603;44.910;8.630;2023-05-10T08:40:36;4.22;;;3.50;;
22871;SDS011;11603;44.910;8.630;2023-05-10T08:43:07;4.97;;;3.70;;
22871;SDS011;11603;44.910;8.630;2023-05-10T08:45:38;4.85;;;3.63;;
22871;SDS011;11603;44.910;8.630;2023-05-10T08:48:06;3.75;;;3.42;;
22871;SDS011;11603;44.910;8.630;2023-05-10T08:50:36;4.70;;;4.18;;
22871;SDS011;11603;44.910;8.630;2023-05-10T08:53:04;4.97;;;4.57;;
22871;SDS011;11603;44.910;8.630;2023-05-10T08:55:34;5.10;;;4.70;;
22871;SDS011;11603;44.910;8.630;2023-05-10T08:58:01;4.57;;;4.00;;
22871;SDS011;11603;44.910;8.630;2023-05-10T09:00:27;4.35;;;3.95;;
22871;SDS011;11603;44.910;8.630;2023-05-10T09:02:53;3.40;;;2.97;;
22871;SDS011;11603;44.910;8.630;2023-05-10T09:05:19;4.50;;;3.00;;
22871;SDS011;11603;44.910;8.630;2023-05-10T09:07:44;2.70;;;2.50;;
22871;SDS011;11603;44.910;8.630;2023-05-10T09:10:10;3.15;;;2.67;;
22871;SDS011;11603;44.910;8.630;2023-05-10T09:12:36;2.50;;;2.30;;
22871;SDS011;11603;44.910;8.630;2023-05-10T09:15:02;5.35;;;2.75;;
22871;SDS011;11603;44.910;8.630;2023-05-10T09:17:30;3.45;;;2.63;;
22871;SDS011;11603;44.910;8.630;2023-05-10T09:19:57;3.38;;;2.30;;
22871;SDS011;11603;44.910;8.630;2023-05-10T09:22:24;3.38;;;2.83;;
22871;SDS011;11603;44.910;8.630;2023-05-10T09:25:03;3.78;;;2.35;;
22871;SDS011;11603;44.910;8.630;2023-05-10T09:27:41;4.50;;;2.63;;
22871;SDS011;11603;44.910;8.630;2023-05-10T09:30:10;6.85;;;2.40;;
22871;SDS011;11603;44.910;8.630;2023-05-10T09:32:41;2.85;;;2.60;;
22871;SDS011;11603;44.910;8.630;2023-05-10T09:35:12;2.47;;;2.28;;
22871;SDS011;11603;44.910;8.630;2023-05-10T09:37:42;2.20;;;2.00;;
22871;SDS011;11603;44.910;8.630;2023-05-10T09:40:13;4.97;;;1.92;;
22871;SDS011;11603;44.910;8.630;2023-05-10T09:42:43;3.45;;;2.00;;
22871;SDS011;11603;44.910;8.630;2023-05-10T09:45:17;1.88;;;1.70;;
22871;SDS011;11603;44.910;8.630;2023-05-10T09:47:42;2.03;;;1.85;;
22871;SDS011;11603;44.910;8.630;2023-05-10T09:50:09;2.40;;;1.50;;
22871;SDS011;11603;44.910;8.630;2023-05-10T09:55:23;1.40;;;1.30;;
22871;SDS011;11603;44.910;8.630;2023-05-10T09:57:58;1.60;;;1.50;;
22871;SDS011;11603;44.910;8.630;2023-05-10T10:00:24;1.85;;;1.67;;
22871;SDS011;11603;44.910;8.630;2023-05-10T10:02:56;6.38;;;1.98;;
22871;SDS011;11603;44.910;8.630;2023-05-10T10:05:29;2.75;;;1.77;;
22871;SDS011;11603;44.910;8.630;2023-05-10T10:07:59;2.25;;;1.83;;
22871;SDS011;11603;44.910;8.630;2023-05-10T10:10:26;2.72;;;1.80;;
22871;SDS011;11603;44.910;8.630;2023-05-10T10:12:53;1.90;;;1.80;;
22871;SDS011;11603;44.910;8.630;2023-05-10T10:15:23;2.47;;;1.90;;
22871;SDS011;11603;44.910;8.630;2023-05-10T10:17:49;4.70;;;1.80;;
22871;SDS011;11603;44.910;8.630;2023-05-10T10:20:16;3.45;;;1.67;;
22871;SDS011;11603;44.910;8.630;2023-05-10T10:22:43;4.18;;;2.00;;
22871;SDS011;11603;44.910;8.630;2023-05-10T10:25:11;1.77;;;1.50;;
22871;SDS011;11603;44.910;8.630;2023-05-10T10:27:47;1.50;;;1.40;;
22871;SDS011;11603;44.910;8.630;2023-05-10T10:35:28;1.73;;;1.45;;
22871;SDS011;11603;44.910;8.630;2023-05-10T10:37:55;1.63;;;1.20;;
22871;SDS011;11603;44.910;8.630;2023-05-10T10:40:26;1.33;;;1.23;;
22871;SDS011;11603;44.910;8.630;2023-05-10T10:42:53;1.33;;;1.08;;
22871;SDS011;11603;44.910;8.630;2023-05-10T10:45:19;1.50;;;1.20;;
22871;SDS011;11603;44.910;8.630;2023-05-10T10:47:46;1.60;;;1.20;;
22871;SDS011;11603;44.910;8.630;2023-05-10T10:50:11;1.95;;;1.10;;
22871;SDS011;11603;44.910;8.630;2023-05-10T10:52:44;1.23;;;1.10;;
22871;SDS011;11603;44.910;8.630;2023-05-10T10:57:42;1.50;;;1.40;;
22871;SDS011;11603;44.910;8.630;2023-05-10T11:00:29;2.40;;;1.73;;
22871;SDS011;11603;44.910;8.630;2023-05-10T11:05:35;3.97;;;2.00;;
22871;SDS011;11603;44.910;8.630;2023-05-10T11:15:57;5.18;;;2.10;;
22871;SDS011;11603;44.910;8.630;2023-05-10T11:18:27;2.50;;;2.30;;
22871;SDS011;11603;44.910;8.630;2023-05-10T11:21:01;3.08;;;2.50;;
22871;SDS011;11603;44.910;8.630;2023-05-10T11:23:49;2.58;;;2.38;;
22871;SDS011;11603;44.910;8.630;2023-05-10T11:26:16;2.45;;;1.80;;
22871;SDS011;11603;44.910;8.630;2023-05-10T11:28:43;2.30;;;2.10;;
22871;SDS011;11603;44.910;8.630;2023-05-10T11:31:08;3.05;;;2.20;;
22871;SDS011;11603;44.910;8.630;2023-05-10T11:33:44;4.32;;;2.00;;
22871;SDS011;11603;44.910;8.630;2023-05-10T11:36:16;2.35;;;1.83;;
22871;SDS011;11603;44.910;8.630;2023-05-10T11:38:43;2.15;;;1.98;;
22871;SDS011;11603;44.910;8.630;2023-05-10T11:41:10;6.55;;;2.75;;
22871;SDS011;11603;44.910;8.630;2023-05-10T11:43:40;1.90;;;1.70;;
22871;SDS011;11603;44.910;8.630;2023-05-10T11:46:06;2.20;;;2.00;;
22871;SDS011;11603;44.910;8.630;2023-05-10T11:48:36;2.05;;;1.85;;
22871;SDS011;11603;44.910;8.630;2023-05-10T11:51:04;1.75;;;1.63;;
22871;SDS011;11603;44.910;8.630;2023-05-10T11:53:30;3.28;;;2.05;;
22871;SDS011;11603;44.910;8.630;2023-05-10T11:56:07;2.35;;;1.50;;
22871;SDS011;11603;44.910;8.630;2023-05-10T11:58:34;1.88;;;1.77;;
22871;SDS011;11603;44.910;8.630;2023-05-10T12:01:01;1.73;;;1.52;;
22871;SDS011;11603;44.910;8.630;2023-05-10T12:03:27;1.85;;;1.40;;
22871;SDS011;11603;44.910;8.630;2023-05-10T12:05:57;1.60;;;1.50;;
22871;SDS011;11603;44.910;8.630;2023-05-10T12:08:26;2.67;;;1.50;;
22871;SDS011;11603;44.910;8.630;2023-05-10T12:10:53;4.10;;;1.63;;
22871;SDS011;11603;44.910;8.630;2023-05-10T12:13:28;1.88;;;1.30;;
22871;SDS011;11603;44.910;8.630;2023-05-10T12:15:57;1.80;;;1.70;;
22871;SDS011;11603;44.910;8.630;2023-05-10T12:18:23;2.00;;;1.80;;
22871;SDS011;11603;44.910;8.630;2023-05-10T12:20:51;3.33;;;1.40;;
22871;SDS011;11603;44.910;8.630;2023-05-10T12:23:18;1.20;;;1.10;;
22871;SDS011;11603;44.910;8.630;2023-05-10T12:25:45;1.85;;;1.38;;
22871;SDS011;11603;44.910;8.630;2023-05-10T12:28:11;1.70;;;1.60;;
22871;SDS011;11603;44.910;8.630;2023-05-10T12:30:36;1.80;;;1.60;;
22871;SDS011;11603;44.910;8.630;2023-05-10T12:33:06;1.65;;;1.50;;
22871;SDS011;11603;44.910;8.630;2023-05-10T12:35:43;1.60;;;1.50;;
22871;SDS011;11603;44.910;8.630;2023-05-10T12:38:29;1.52;;;1.40;;
22871;SDS011;11603;44.910;8.630;2023-05-10T12:41:00;1.73;;;1.52;;
22871;SDS011;11603;44.910;8.630;2023-05-10T12:43:28;3.00;;;1.27;;
22871;SDS011;11603;44.910;8.630;2023-05-10T12:45:54;2.30;;;1.30;;
22871;SDS011;11603;44.910;8.630;2023-05-10T12:48:19;1.63;;;1.48;;
22871;SDS011;11603;44.910;8.630;2023-05-10T12:50:45;3.42;;;1.70;;
22871;SDS011;11603;44.910;8.630;2023-05-10T12:53:13;2.85;;;1.58;;
22871;SDS011;11603;44.910;8.630;2023-05-10T12:55:43;1.70;;;1.60;;
22871;SDS011;11603;44.910;8.630;2023-05-10T12:58:09;1.50;;;1.20;;
22871;SDS011;11603;44.910;8.630;2023-05-10T13:00:35;1.40;;;1.30;;
22871;SDS011;11603;44.910;8.630;2023-05-10T13:03:00;1.40;;;1.30;;
22871;SDS011;11603;44.910;8.630;2023-05-10T13:05:26;1.20;;;1.10;;
22871;SDS011;11603;44.910;8.630;2023-05-10T13:07:51;1.95;;;1.38;;
22871;SDS011;11603;44.910;8.630;2023-05-10T13:10:17;1.45;;;1.35;;
22871;SDS011;11603;44.910;8.630;2023-05-10T13:12:42;1.50;;;1.40;;
22871;SDS011;11603;44.910;8.630;2023-05-10T13:15:08;1.85;;;1.65;;
22871;SDS011;11603;44.910;8.630;2023-05-10T13:17:33;2.17;;;1.60;;
22871;SDS011;11603;44.910;8.630;2023-05-10T13:19:59;1.50;;;1.40;;
22871;SDS011;11603;44.910;8.630;2023-05-10T13:22:24;1.55;;;1.23;;
22871;SDS011;11603;44.910;8.630;2023-05-10T13:24:50;1.10;;;1.10;;
22871;SDS011;11603;44.910;8.630;2023-05-10T13:27:15;1.77;;;1.20;;
22871;SDS011;11603;44.910;8.630;2023-05-10T13:29:41;3.50;;;1.25;;
22871;SDS011;11603;44.910;8.630;2023-05-10T13:32:06;1.73;;;1.63;;
22871;SDS011;11603;44.910;8.630;2023-05-10T13:34:32;2.22;;;1.60;;
22871;SDS011;11603;44.910;8.630;2023-05-10T13:36:57;1.63;;;1.52;;
22871;SDS011;11603;44.910;8.630;2023-05-10T13:39:23;1.45;;;1.35;;
22871;SDS011;11603;44.910;8.630;2023-05-10T13:41:48;1.40;;;1.30;;
22871;SDS011;11603;44.910;8.630;2023-05-10T13:44:14;1.73;;;1.63;;
22871;SDS011;11603;44.910;8.630;2023-05-10T13:46:40;1.55;;;1.40;;
22871;SDS011;11603;44.910;8.630;2023-05-10T13:49:08;1.98;;;1.65;;
22871;SDS011;11603;44.910;8.630;2023-05-10T13:51:34;1.73;;;1.30;;
22871;SDS011;11603;44.910;8.630;2023-05-10T13:54:00;1.45;;;1.35;;
22871;SDS011;11603;44.910;8.630;2023-05-10T13:56:30;1.60;;;1.50;;
22871;SDS011;11603;44.910;8.630;2023-05-10T13:58:58;2.13;;;1.63;;
22871;SDS011;11603;44.910;8.630;2023-05-10T14:01:24;1.38;;;1.27;;
22871;SDS011;11603;44.910;8.630;2023-05-10T14:03:49;1.65;;;1.30;;
22871;SDS011;11603;44.910;8.630;2023-05-10T14:06:15;1.45;;;1.23;;
22871;SDS011;11603;44.910;8.630;2023-05-10T14:08:40;1.25;;;1.15;;
22871;SDS011;11603;44.910;8.630;2023-05-10T14:11:06;1.50;;;1.40;;
22871;SDS011;11603;44.910;8.630;2023-05-10T14:13:31;2.13;;;1.60;;
22871;SDS011;11603;44.910;8.630;2023-05-10T14:15:57;1.88;;;1.73;;
22871;SDS011;11603;44.910;8.630;2023-05-10T14:18:23;1.40;;;1.30;;
22871;SDS011;11603;44.910;8.630;2023-05-10T14:20:49;1.30;;;1.20;;
22871;SDS011;11603;44.910;8.630;2023-05-10T14:23:14;1.50;;;1.40;;
22871;SDS011;11603;44.910;8.630;2023-05-10T14:25:40;2.10;;;1.20;;
22871;SDS011;11603;44.910;8.630;2023-05-10T14:28:05;1.63;;;1.15;;
22871;SDS011;11603;44.910;8.630;2023-05-10T14:30:31;1.33;;;1.10;;
22871;SDS011;11603;44.910;8.630;2023-05-10T14:32:57;2.17;;;1.20;;
22871;SDS011;11603;44.910;8.630;2023-05-10T14:35:23;2.03;;;1.00;;
22871;SDS011;11603;44.910;8.630;2023-05-10T14:37:49;1.25;;;1.15;;
22871;SDS011;11603;44.910;8.630;2023-05-10T14:40:14;1.38;;;1.20;;
22871;SDS011;11603;44.910;8.630;2023-05-10T14:42:41;1.02;;;0.90;;
22871;SDS011;11603;44.910;8.630;2023-05-10T14:45:07;2.03;;;1.40;;
22871;SDS011;11603;44.910;8.630;2023-05-10T14:47:33;1.30;;;1.20;;
22871;SDS011;11603;44.910;8.630;2023-05-10T14:49:59;1.85;;;1.30;;
22871;SDS011;11603;44.910;8.630;2023-05-10T14:52:25;1.27;;;1.08;;
22871;SDS011;11603;44.910;8.630;2023-05-10T14:54:51;2.80;;;1.25;;
22871;SDS011;11603;44.910;8.630;2023-05-10T14:57:16;2.78;;;1.33;;
22871;SDS011;11603;44.910;8.630;2023-05-10T14:59:42;1.95;;;1.10;;
22871;SDS011;11603;44.910;8.630;2023-05-10T15:02:07;1.80;;;1.20;;
22871;SDS011;11603;44.910;8.630;2023-05-10T15:04:33;1.20;;;1.10;;
22871;SDS011;11603;44.910;8.630;2023-05-10T15:06:58;1.42;;;1.20;;
22871;SDS011;11603;44.910;8.630;2023-05-10T15:09:24;1.33;;;1.23;;
22871;SDS011;11603;44.910;8.630;2023-05-10T15:11:50;1.38;;;1.27;;
22871;SDS011;11603;44.910;8.630;2023-05-10T15:14:16;2.17;;;0.98;;
22871;SDS011;11603;44.910;8.630;2023-05-10T15:16:41;2.20;;;1.00;;
22871;SDS011;11603;44.910;8.630;2023-05-10T15:19:07;1.05;;;1.00;;
22871;SDS011;11603;44.910;8.630;2023-05-10T15:21:32;1.65;;;1.35;;